Time;durP1;ratioP1;P1;durP2;ratioP2;P2;SDS_P1;SDS_P2;PMS_P1;PMS_P2;Temp;Humidity;BMP_temperature;BMP_pressure;BME280_temperature;BME280_humidity;BME280_pressure;Samples;Min_cycle;Max_cycle;Signal;HPM_P1;HPM_P2
2021/11/27 07:47:00;;;;;;;2.97;2.40;;;;;;;;;;5134781;27;20283;-79
2021/11/27 07:49:26;;;;;;;5.23;3.53;;;1.20;99.90;;;;;;5135577;28;20412;-80
2021/11/27 07:51:53;;;;;;;3.20;2.47;;;1.40;99.90;;;;;;5133403;28;20412;-81
2021/11/27 07:54:19;;;;;;;3.80;2.90;;;1.40;99.90;;;;;;5097766;28;20934;-82
2021/11/27 07:56:45;;;;;;;2.80;2.50;;;1.50;99.90;;;;;;5098556;28;20413;-81
2021/11/27 07:59:11;;;;;;;4.13;2.80;;;1.60;99.90;;;;;;5108083;28;20469;-80
2021/11/27 08:01:37;;;;;;;6.33;3.60;;;1.80;99.90;;;;;;5117590;27;20412;-80
2021/11/27 08:04:03;;;;;;;8.67;6.60;;;2.30;99.90;;;;;;5107631;28;20176;-81
2021/11/27 08:06:29;;;;;;;12.53;8.43;;;3.20;99.90;;;;;;5090767;28;20196;-82
2021/11/27 08:08:55;;;;;;;9.00;5.50;;;3.80;99.90;;;;;;5103048;28;20906;-81
2021/11/27 08:11:26;;;;;;;5.53;3.93;;;4.30;99.90;;;;;;5083738;28;20275;-81
2021/11/27 08:13:52;;;;;;;5.87;3.40;;;4.70;99.90;;;;;;5078713;28;20585;-80
2021/11/27 08:16:19;;;;;;;22.70;11.83;;;4.90;99.90;;;;;;5105326;28;20425;-82
2021/11/27 08:18:45;;;;;;;23.83;13.17;;;5.00;99.90;;;;;;5085174;28;20932;-81
2021/11/27 08:21:11;;;;;;;23.80;12.27;;;5.00;99.90;;;;;;5079519;28;20418;-81
2021/11/27 08:23:37;;;;;;;15.40;9.47;;;4.80;99.90;;;;;;5079077;28;20525;-83
2021/11/27 08:26:03;;;;;;;12.00;9.17;;;4.20;99.90;;;;;;5087355;28;20195;-83
2021/11/27 08:28:29;;;;;;;17.73;11.90;;;3.70;99.90;;;;;;5085560;28;20928;-83
2021/11/27 08:30:55;;;;;;;16.50;11.93;;;3.20;99.90;;;;;;5079698;28;20472;-83
2021/11/27 08:33:21;;;;;;;11.87;9.27;;;2.90;99.90;;;;;;5078361;28;20196;-83
2021/11/27 08:35:48;;;;;;;15.60;11.60;;;2.60;99.90;;;;;;5092726;28;20419;-83
2021/11/27 08:38:14;;;;;;;6.40;5.30;;;2.30;99.90;;;;;;5116665;28;20175;-83
2021/11/27 08:40:40;;;;;;;8.23;6.30;;;2.20;99.90;;;;;;5098329;28;20421;-82
2021/11/27 08:43:06;;;;;;;10.17;7.83;;;2.20;99.90;;;;;;5098714;28;20473;-83
2021/11/27 08:45:32;;;;;;;10.73;9.03;;;2.20;99.90;;;;;;5110973;28;20492;-83
2021/11/27 08:47:58;;;;;;;6.03;5.37;;;2.20;99.90;;;;;;5086393;28;20415;-83
2021/11/27 08:50:23;;;;;;;5.70;4.50;;;2.20;99.90;;;;;;5116549;28;20195;-81
2021/11/27 08:52:51;;;;;;;4.47;3.33;;;2.10;99.90;;;;;;5115082;28;20198;-82
2021/11/27 08:55:17;;;;;;;3.93;3.00;;;2.10;99.90;;;;;;5083339;28;20175;-82
2021/11/27 08:57:43;;;;;;;5.23;4.20;;;;;;;;;;5101549;28;20411;-83
2021/11/27 09:00:11;;;;;;;5.30;3.40;;;2.10;99.90;;;;;;5081248;28;20414;-82
2021/11/27 09:02:38;;;;;;;4.27;3.70;;;2.20;99.90;;;;;;5062898;28;20446;-82
2021/11/27 09:05:05;;;;;;;5.07;3.60;;;2.20;99.90;;;;;;5063873;28;20459;-82
2021/11/27 09:07:30;;;;;;;5.83;4.20;;;2.30;99.90;;;;;;5063700;28;20430;-83
2021/11/27 09:09:56;;;;;;;4.33;3.47;;;;;;;;;;5083221;28;20411;-82
2021/11/27 09:12:23;;;;;;;4.30;3.60;;;2.50;99.90;;;;;;5078965;28;20200;-82
2021/11/27 09:14:50;;;;;;;4.67;4.23;;;2.60;99.90;;;;;;5090858;28;20448;-81
2021/11/27 09:17:18;;;;;;;3.53;3.23;;;2.50;99.90;;;;;;5086133;28;20414;-80
2021/11/27 09:19:45;;;;;;;3.73;2.73;;;;;;;;;;5086345;28;20453;-81
2021/11/27 09:22:11;;;;;;;4.53;3.03;;;2.70;99.90;;;;;;5080224;28;20447;-81
2021/11/27 09:24:37;;;;;;;4.83;3.97;;;2.70;99.90;;;;;;5078985;28;20447;-80
2021/11/27 09:27:03;;;;;;;2.50;2.30;;;2.80;99.90;;;;;;5094948;28;20456;-79
2021/11/27 09:29:29;;;;;;;2.90;2.70;;;2.80;99.90;;;;;;5100953;28;20233;-82
2021/11/27 09:31:55;;;;;;;2.67;2.37;;;;;;;;;;5062751;28;20230;-81
2021/11/27 09:34:21;;;;;;;3.47;3.17;;;;;;;;;;5081390;28;20442;-82
2021/11/27 09:36:48;;;;;;;4.20;2.60;;;;;;;;;;5067381;28;20463;-79
2021/11/27 09:39:15;;;;;;;3.57;2.53;;;2.90;99.90;;;;;;5079213;28;20920;-80
2021/11/27 09:41:44;;;;;;;3.13;2.40;;;2.90;99.90;;;;;;5083275;28;20418;-83
2021/11/27 09:44:11;;;;;;;2.13;1.70;;;2.90;99.90;;;;;;5083220;28;20425;-84
2021/11/27 09:46:40;;;;;;;3.93;2.70;;;3.00;99.90;;;;;;5099398;28;20466;-83
2021/11/27 09:49:09;;;;;;;4.50;2.30;;;3.00;99.90;;;;;;5081016;28;20923;-82
2021/11/27 09:51:36;;;;;;;4.90;3.27;;;;;;;;;;5080931;28;20509;-82
2021/11/27 09:54:04;;;;;;;3.03;2.30;;;3.00;99.90;;;;;;5100510;28;20417;-82
2021/11/27 09:56:30;;;;;;;2.90;2.20;;;;;;;;;;5100151;28;20840;-82
2021/11/27 09:58:56;;;;;;;5.70;2.50;;;;;;;;;;5082032;28;20509;-82
2021/11/27 10:01:29;;;;;;;4.03;3.00;;;2.90;99.90;;;;;;5081742;28;20414;-83
2021/11/27 10:04:00;;;;;;;2.47;2.00;;;3.00;99.90;;;;;;5103650;28;20553;-82
2021/11/27 10:06:28;;;;;;;3.70;2.43;;;3.10;99.90;;;;;;5086968;28;20454;-82
2021/11/27 10:08:55;;;;;;;2.67;2.13;;;3.10;99.90;;;;;;5085793;28;20557;-82
2021/11/27 10:11:21;;;;;;;2.70;2.50;;;;;;;;;;5086082;28;20988;-82
2021/11/27 10:13:47;;;;;;;2.77;2.20;;;;;;;;;;5104076;28;20433;-83
2021/11/27 10:16:13;;;;;;;2.57;2.20;;;;;;;;;;5086357;28;20524;-82
2021/11/27 10:18:39;;;;;;;3.07;2.47;;;;;;;;;;5087219;28;20422;-82
2021/11/27 10:21:23;;;;;;;3.30;2.87;;;3.40;99.90;;;;;;5088496;28;20410;-82
2021/11/27 10:23:50;;;;;;;3.27;2.70;;;3.50;99.90;;;;;;5087107;28;20521;-82
2021/11/27 10:26:37;;;;;;;2.50;2.20;;;3.50;99.90;;;;;;5107563;28;20458;-82
2021/11/27 10:29:28;;;;;;;3.23;2.43;;;3.70;99.90;;;;;;5105109;28;20409;-82
2021/11/27 10:32:13;;;;;;;4.13;2.73;;;3.90;99.90;;;;;;5084934;28;20489;-82
2021/11/27 10:34:49;;;;;;;3.17;2.10;;;4.00;99.90;;;;;;5099047;28;20402;-83
2021/11/27 10:37:26;;;;;;;5.73;3.83;;;4.00;99.90;;;;;;5083381;28;20813;-81
2021/11/27 10:39:59;;;;;;;1.67;1.57;;;4.00;99.90;;;;;;5081436;28;20487;-81
2021/11/27 10:42:25;;;;;;;8.77;6.20;;;4.10;99.90;;;;;;5095879;28;20484;-81
2021/11/27 10:44:52;;;;;;;6.03;3.70;;;3.80;99.90;;;;;;5060815;28;20411;-80
2021/11/27 10:47:19;;;;;;;2.10;1.90;;;3.70;99.90;;;;;;5060984;28;20422;-80
2021/11/27 10:49:47;;;;;;;16.80;13.17;;;3.70;99.90;;;;;;5078507;28;20452;-80
2021/11/27 10:52:18;;;;;;;7.77;6.80;;;3.60;99.90;;;;;;5093565;28;20445;-80
2021/11/27 10:54:56;;;;;;;7.27;5.80;;;3.50;99.90;;;;;;5060642;28;20421;-80
2021/11/27 10:57:28;;;;;;;6.83;5.60;;;3.40;99.90;;;;;;5060135;28;20407;-80
2021/11/27 10:59:59;;;;;;;4.73;3.90;;;3.40;99.90;;;;;;5078044;28;20403;-80
2021/11/27 11:02:28;;;;;;;2.10;1.90;;;3.30;99.90;;;;;;5060296;28;20431;-78
2021/11/27 11:05:02;;;;;;;1.90;1.80;;;3.10;99.90;;;;;;5061026;28;20951;-80
2021/11/27 11:07:30;;;;;;;2.60;2.40;;;;;;;;;;5078243;28;20508;-80
2021/11/27 11:10:20;;;;;;;2.90;2.70;;;2.80;99.90;;;;;;5060954;28;20403;-80
2021/11/27 11:12:55;;;;;;;3.40;2.47;;;2.70;99.90;;;;;;5060119;28;20435;-79
2021/11/27 11:15:26;;;;;;;2.63;2.30;;;2.70;99.90;;;;;;5059516;28;20417;-80
2021/11/27 11:18:09;;;;;;;3.40;3.13;;;2.70;99.90;;;;;;5061111;28;20474;-79
2021/11/27 11:20:37;;;;;;;2.30;2.00;;;2.70;99.90;;;;;;5062953;28;20909;-78
2021/11/27 11:23:05;;;;;;;1.80;1.70;;;2.60;99.90;;;;;;5071422;28;20474;-78
2021/11/27 11:25:32;;;;;;;4.17;2.20;;;2.60;99.90;;;;;;5092056;28;20451;-79
2021/11/27 11:27:58;;;;;;;2.60;1.83;;;2.60;99.90;;;;;;5063544;28;20422;-82
2021/11/27 11:30:36;;;;;;;3.17;2.23;;;2.60;99.90;;;;;;5076344;28;20768;-79
2021/11/27 11:33:02;;;;;;;16.27;11.67;;;2.60;99.90;;;;;;5057059;28;20427;-79
2021/11/27 11:35:28;;;;;;;3.70;3.03;;;2.60;99.90;;;;;;5075049;28;20754;-78
2021/11/27 11:37:54;;;;;;;7.93;5.03;;;2.70;99.90;;;;;;5086785;28;20257;-79
2021/11/27 11:40:20;;;;;;;4.27;3.00;;;2.70;99.90;;;;;;5079569;28;20418;-79
2021/11/27 11:42:47;;;;;;;4.03;3.13;;;2.70;99.90;;;;;;5079685;28;20192;-78
2021/11/27 11:45:12;;;;;;;2.87;2.67;;;2.80;99.90;;;;;;5076759;28;20231;-77
2021/11/27 11:47:38;;;;;;;4.40;2.67;;;2.80;99.90;;;;;;5095773;28;20398;-79
2021/11/27 11:50:08;;;;;;;4.70;2.87;;;2.80;99.90;;;;;;5095568;28;20528;-78
2021/11/27 11:52:55;;;;;;;5.27;3.40;;;2.90;99.90;;;;;;5094863;28;20665;-78
2021/11/27 11:55:22;;;;;;;2.87;1.87;;;2.90;99.90;;;;;;5094317;28;20406;-78
2021/11/27 11:57:56;;;;;;;2.07;1.87;;;2.80;99.90;;;;;;5087902;28;20423;-77
2021/11/27 12:00:26;;;;;;;2.63;2.43;;;2.80;99.90;;;;;;5074526;28;20415;-78
2021/11/27 12:03:01;;;;;;;8.10;5.47;;;2.90;99.90;;;;;;5082970;28;20950;-79
2021/11/27 12:05:27;;;;;;;4.70;3.33;;;2.80;99.90;;;;;;5096727;28;20449;-80
2021/11/27 12:07:57;;;;;;;5.90;4.00;;;2.90;99.90;;;;;;5091778;28;20417;-80
2021/11/27 12:10:27;;;;;;;14.53;8.60;;;3.00;99.90;;;;;;5079530;28;20653;-79
2021/11/27 12:13:07;;;;;;;9.17;5.67;;;2.90;99.90;;;;;;5097791;28;20425;-79
2021/11/27 12:15:36;;;;;;;30.70;13.77;;;2.90;99.90;;;;;;5079798;28;20425;-79
2021/11/27 12:18:01;;;;;;;42.07;16.30;;;2.90;99.90;;;;;;5097110;28;20783;-81
2021/11/27 12:20:41;;;;;;;26.00;11.20;;;3.00;99.90;;;;;;5063405;28;20515;-80
2021/11/27 12:23:29;;;;;;;25.43;11.00;;;2.90;99.90;;;;;;5067967;28;20275;-79
2021/11/27 12:26:07;;;;;;;28.40;13.63;;;2.90;99.90;;;;;;5075488;28;20793;-80
2021/11/27 12:28:42;;;;;;;39.27;17.77;;;2.90;99.90;;;;;;5079769;28;20418;-80
2021/11/27 12:31:24;;;;;;;22.47;11.37;;;2.90;99.90;;;;;;5080092;28;20414;-79
2021/11/27 12:33:49;;;;;;;32.47;11.47;;;2.80;99.90;;;;;;5101432;28;20487;-80
2021/11/27 12:36:24;;;;;;;70.97;25.20;;;2.80;99.90;;;;;;5083860;28;20819;-80
2021/11/27 12:39:04;;;;;;;94.80;32.17;;;2.90;99.90;;;;;;5068574;28;20215;-80
2021/11/27 12:41:31;;;;;;;30.37;11.73;;;2.80;99.90;;;;;;5062738;28;20525;-80
2021/11/27 12:44:11;;;;;;;37.50;15.50;;;2.80;99.90;;;;;;5081048;28;20836;-80
2021/11/27 12:46:37;;;;;;;67.90;29.07;;;2.80;99.90;;;;;;5081436;28;20462;-80
2021/11/27 12:49:03;;;;;;;59.37;25.53;;;2.80;99.90;;;;;;5097134;28;20465;-80
2021/11/27 12:51:29;;;;;;;24.83;11.67;;;2.70;99.90;;;;;;5081002;28;20169;-80
2021/11/27 12:54:01;;;;;;;40.20;20.60;;;2.40;99.90;;;;;;5081631;28;20461;-80
2021/11/27 12:56:47;;;;;;;73.83;29.53;;;2.40;99.90;;;;;;5063957;28;20272;-79
2021/11/27 12:59:21;;;;;;;41.60;17.20;;;2.30;99.90;;;;;;5063487;28;20472;-79
2021/11/27 13:01:48;;;;;;;40.27;18.37;;;2.20;99.90;;;;;;5062923;28;20419;-79
2021/11/27 13:04:20;;;;;;;26.30;10.13;;;;;;;;;;5097042;28;20474;-79
2021/11/27 13:06:47;;;;;;;62.33;24.23;;;2.10;99.90;;;;;;5063336;28;20469;-80
2021/11/27 13:09:14;;;;;;;93.83;30.87;;;2.10;99.90;;;;;;5063535;28;20423;-79
2021/11/27 13:11:58;;;;;;;45.33;15.47;;;2.00;99.90;;;;;;5080899;28;20422;-80
2021/11/27 13:14:26;;;;;;;61.37;22.83;;;1.90;99.90;;;;;;5097902;28;20962;-81
2021/11/27 13:16:54;;;;;;;43.57;16.60;;;1.90;99.90;;;;;;5081731;28;20445;-80
2021/11/27 13:19:27;;;;;;;77.40;25.67;;;1.90;99.90;;;;;;5063507;28;20419;-80
2021/11/27 13:21:53;;;;;;;206.63;61.80;;;;;;;;;;5087669;28;20978;-80
2021/11/27 13:24:20;;;;;;;232.50;70.30;;;;;;;;;;5094981;28;20407;-80
2021/11/27 13:26:46;;;;;;;122.40;36.00;;;2.00;99.90;;;;;;5096506;28;20817;-81
2021/11/27 13:29:12;;;;;;;65.93;20.93;;;2.10;99.90;;;;;;5071451;28;20499;-80
2021/11/27 13:31:41;;;;;;;26.30;12.70;;;2.10;99.90;;;;;;5101525;28;20172;-81
2021/11/27 13:34:07;;;;;;;14.17;8.50;;;;;;;;;;5102543;28;20164;-81
2021/11/27 13:36:44;;;;;;;8.43;5.10;;;2.00;99.90;;;;;;5086569;28;20406;-81
2021/11/27 13:39:20;;;;;;;7.33;5.47;;;2.10;99.90;;;;;;5063339;28;20804;-81
2021/11/27 13:42:01;;;;;;;5.93;5.07;;;2.10;99.90;;;;;;5062399;28;20419;-79
2021/11/27 13:44:47;;;;;;;6.33;5.00;;;2.10;99.90;;;;;;5068515;28;20415;-82
2021/11/27 13:47:35;;;;;;;4.67;3.23;;;2.20;99.90;;;;;;5084571;28;21008;-79
2021/11/27 13:50:04;;;;;;;3.83;3.00;;;2.20;99.90;;;;;;5113915;28;20422;-79
2021/11/27 13:52:53;;;;;;;4.07;3.40;;;2.30;99.90;;;;;;5100218;28;20478;-78
2021/11/27 13:55:24;;;;;;;8.43;5.07;;;2.30;99.90;;;;;;5098770;28;20405;-80
2021/11/27 13:57:53;;;;;;;3.17;2.60;;;2.40;99.90;;;;;;5086507;28;20429;-80
2021/11/27 14:00:22;;;;;;;27.10;17.27;;;2.30;99.90;;;;;;5101355;28;20474;-83
2021/11/27 14:02:48;;;;;;;5.43;4.07;;;2.40;99.90;;;;;;5085558;28;20968;-82
2021/11/27 14:05:15;;;;;;;5.47;3.83;;;2.30;99.90;;;;;;5084894;28;20446;-82
2021/11/27 14:07:45;;;;;;;2.60;2.33;;;2.30;99.90;;;;;;5095975;28;20268;-80
2021/11/27 14:10:19;;;;;;;3.30;3.00;;;2.30;99.90;;;;;;5102052;28;20402;-77
2021/11/27 14:12:52;;;;;;;2.93;2.70;;;2.30;99.90;;;;;;5097869;28;20853;-82
2021/11/27 14:15:23;;;;;;;3.60;3.07;;;2.30;99.90;;;;;;5084352;28;20429;-80
2021/11/27 14:18:09;;;;;;;5.83;3.97;;;2.30;99.90;;;;;;5088236;28;20427;-80
2021/11/27 14:20:47;;;;;;;3.23;2.53;;;2.20;99.90;;;;;;5079545;28;20433;-80
2021/11/27 14:23:15;;;;;;;2.40;2.13;;;2.20;99.90;;;;;;5065629;28;20438;-80
2021/11/27 14:25:43;;;;;;;2.43;2.23;;;2.20;99.90;;;;;;5071036;28;20453;-80
2021/11/27 14:28:13;;;;;;;4.40;2.97;;;2.20;99.90;;;;;;5064967;28;20415;-79
2021/11/27 14:30:44;;;;;;;2.33;2.10;;;2.20;99.90;;;;;;5079019;28;20905;-80
2021/11/27 14:33:24;;;;;;;1.97;1.87;;;2.20;99.90;;;;;;5078303;28;20426;-81
2021/11/27 14:35:57;;;;;;;2.43;2.20;;;2.20;99.90;;;;;;5078838;28;20904;-80
2021/11/27 14:38:35;;;;;;;4.27;2.40;;;2.20;99.90;;;;;;5061357;28;20411;-80
2021/11/27 14:41:04;;;;;;;5.13;3.87;;;2.10;99.90;;;;;;5078359;28;20411;-81
2021/11/27 14:43:30;;;;;;;3.43;2.17;;;;;;;;;;5079057;28;20457;-82
2021/11/27 14:45:56;;;;;;;3.20;2.60;;;;;;;;;;5061394;28;20543;-83
2021/11/27 14:48:33;;;;;;;3.73;2.33;;;2.00;99.90;;;;;;5078912;28;20430;-82
2021/11/27 14:51:01;;;;;;;3.40;2.63;;;2.00;99.90;;;;;;5060193;28;20415;-80
2021/11/27 14:53:39;;;;;;;2.50;2.30;;;2.00;99.90;;;;;;5060218;28;20438;-80
2021/11/27 14:56:05;;;;;;;2.00;1.90;;;1.90;99.90;;;;;;5059493;28;20419;-81
2021/11/27 14:58:32;;;;;;;1.87;1.70;;;1.90;99.90;;;;;;5077300;28;20447;-80
2021/11/27 15:01:04;;;;;;;3.30;2.17;;;1.80;99.90;;;;;;5078394;28;20422;-83
2021/11/27 15:03:34;;;;;;;4.13;2.30;;;1.80;99.90;;;;;;5077818;28;20434;-82
2021/11/27 15:06:00;;;;;;;2.27;1.90;;;1.70;99.90;;;;;;5077244;28;20451;-81
2021/11/27 15:08:27;;;;;;;4.23;3.67;;;1.70;99.90;;;;;;5077605;28;20411;-81
2021/11/27 15:10:54;;;;;;;3.43;2.93;;;1.70;99.90;;;;;;5077341;28;20203;-81
2021/11/27 15:13:20;;;;;;;2.47;2.27;;;1.50;99.90;;;;;;5076668;28;20495;-81
2021/11/27 15:15:47;;;;;;;3.23;2.87;;;;;;;;;;5081688;28;20449;-81
2021/11/27 15:18:15;;;;;;;5.30;3.07;;;;;;;;;;5099937;28;20755;-81
2021/11/27 15:20:41;;;;;;;4.10;3.80;;;1.30;99.90;;;;;;5102411;28;20428;-80
2021/11/27 15:23:07;;;;;;;5.97;5.33;;;;;;;;;;5088363;28;20430;-81
2021/11/27 15:25:34;;;;;;;5.80;5.30;;;;;;;;;;5098790;28;20434;-81
2021/11/27 15:28:00;;;;;;;4.43;3.37;;;1.20;99.90;;;;;;5112756;28;20481;-79
2021/11/27 15:30:26;;;;;;;10.83;7.87;;;1.20;99.90;;;;;;5099747;28;20434;-79
2021/11/27 15:32:52;;;;;;;8.47;6.40;;;;;;;;;;5096700;28;20188;-79
2021/11/27 15:35:18;;;;;;;6.73;5.03;;;;;;;;;;5096961;28;20464;-80
2021/11/27 15:37:48;;;;;;;4.90;4.40;;;;;;;;;;5078733;28;20414;-79
2021/11/27 15:40:14;;;;;;;3.07;2.70;;;;;;;;;;5096621;28;20542;-79
2021/11/27 15:42:41;;;;;;;3.20;2.80;;;1.20;99.90;;;;;;5096579;28;20429;-80
2021/11/27 15:45:08;;;;;;;4.60;3.90;;;1.20;99.90;;;;;;5078517;28;20469;-81
2021/11/27 15:47:35;;;;;;;7.00;3.40;;;;;;;;;;5098190;28;20404;-81
2021/11/27 15:50:01;;;;;;;8.43;3.37;;;;;;;;;;5080113;28;20413;-81
2021/11/27 15:52:28;;;;;;;7.20;4.80;;;1.10;99.90;;;;;;5098153;28;20471;-80
2021/11/27 15:54:55;;;;;;;10.47;6.70;;;;;;;;;;5078391;28;20441;-79
2021/11/27 15:57:21;;;;;;;15.27;9.97;;;;;;;;;;5078293;28;20472;-79
2021/11/27 15:59:47;;;;;;;4.80;2.93;;;;;;;;;;5096361;28;20958;-79
2021/11/27 16:02:13;;;;;;;4.20;3.80;;;1.30;99.90;;;;;;5077734;28;20939;-80
2021/11/27 16:04:39;;;;;;;4.60;3.07;;;1.30;99.90;;;;;;5096365;28;20410;-80
2021/11/27 16:07:05;;;;;;;3.30;2.97;;;1.30;99.90;;;;;;5080226;28;20479;-80
2021/11/27 16:09:33;;;;;;;3.10;2.70;;;1.30;99.90;;;;;;5102042;28;20433;-80
2021/11/27 16:11:59;;;;;;;2.73;2.53;;;;;;;;;;5102420;28;20195;-79
2021/11/27 16:14:25;;;;;;;3.37;2.53;;;;;;;;;;5083897;28;20410;-80
2021/11/27 16:16:51;;;;;;;3.70;3.30;;;;;;;;;;5083834;28;20856;-81
2021/11/27 16:19:17;;;;;;;3.00;2.57;;;;;;;;;;5088661;28;20409;-80
2021/11/27 16:21:43;;;;;;;7.63;4.97;;;1.30;99.90;;;;;;5101676;28;20417;-80
2021/11/27 16:24:09;;;;;;;5.70;4.10;;;1.30;99.90;;;;;;5119351;28;20503;-81
2021/11/27 16:26:35;;;;;;;17.97;10.37;;;1.40;99.90;;;;;;5101067;28;20227;-81
2021/11/27 16:29:02;;;;;;;10.30;5.97;;;1.30;99.90;;;;;;5101170;28;20937;-81
2021/11/27 16:31:27;;;;;;;8.67;5.80;;;1.30;99.90;;;;;;5102089;28;20244;-81
2021/11/27 16:33:53;;;;;;;8.70;5.60;;;;;;;;;;5120370;28;20420;-81
2021/11/27 16:36:20;;;;;;;8.60;5.53;;;;;;;;;;5122220;28;20185;-80
2021/11/27 16:38:46;;;;;;;6.27;3.90;;;;;;;;;;5121122;28;20522;-81
2021/11/27 16:41:12;;;;;;;4.90;3.53;;;;;;;;;;5103988;28;20401;-81
2021/11/27 16:43:39;;;;;;;8.23;4.33;;;;;;;;;;5124992;28;20460;-81
2021/11/27 16:46:06;;;;;;;4.83;2.90;;;1.20;99.90;;;;;;5127281;28;20460;-80
2021/11/27 16:48:33;;;;;;;3.80;2.40;;;1.10;99.90;;;;;;5123775;28;20412;-80
2021/11/27 16:50:59;;;;;;;3.60;3.00;;;1.10;99.90;;;;;;5100749;28;20405;-81
2021/11/27 16:53:25;;;;;;;3.80;2.63;;;0.90;99.90;;;;;;5118415;28;20429;-80
2021/11/27 16:55:51;;;;;;;4.40;3.10;;;1.10;99.90;;;;;;5111776;28;20561;-78
2021/11/27 16:58:17;;;;;;;3.63;3.00;;;;;;;;;;5099240;28;20259;-79
2021/11/27 17:00:43;;;;;;;3.90;3.50;;;;;;;;;;5099472;28;20179;-79
2021/11/27 17:03:09;;;;;;;4.33;3.27;;;;;;;;;;5099027;28;20551;-79
2021/11/27 17:05:37;;;;;;;4.23;3.63;;;1.10;99.90;;;;;;5081109;28;20461;-80
2021/11/27 17:08:03;;;;;;;6.70;4.30;;;1.10;99.90;;;;;;5080801;28;20451;-79
